createdAt,value
2019-06-20T00:00:07.105Z,7.47
2019-06-20T00:02:33.931Z,7.67
2019-06-20T00:05:05.087Z,7.47
2019-06-20T00:07:31.630Z,7.97
2019-06-20T00:09:58.295Z,8.30
2019-06-20T00:12:24.848Z,7.33
2019-06-20T00:14:51.506Z,8.47
2019-06-20T00:17:18.177Z,7.70
2019-06-20T00:19:44.840Z,7.60
2019-06-20T00:22:11.372Z,7.87
2019-06-20T00:24:38.046Z,8.47
2019-06-20T00:27:04.599Z,8.90
2019-06-20T00:29:31.152Z,7.43
2019-06-20T00:31:57.693Z,7.40
2019-06-20T00:34:24.290Z,9.50
2019-06-20T00:36:51.453Z,9.10
2019-06-20T00:39:18.146Z,10.07
2019-06-20T00:41:44.670Z,9.50
2019-06-20T00:44:11.254Z,10.07
2019-06-20T00:46:37.820Z,9.47
2019-06-20T00:49:04.504Z,9.90
2019-06-20T00:51:31.137Z,10.30
2019-06-20T00:53:57.826Z,9.90
2019-06-20T00:56:24.337Z,10.03
2019-06-20T00:58:50.878Z,10.37
2019-06-20T01:01:17.449Z,10.30
2019-06-20T01:03:44.091Z,9.40
2019-06-20T01:06:10.764Z,9.40
2019-06-20T01:08:37.393Z,9.33
2019-06-20T01:11:04.077Z,8.67
2019-06-20T01:13:34.064Z,7.93
2019-06-20T01:15:59.185Z,7.57
2019-06-20T01:18:25.720Z,8.67
2019-06-20T01:20:52.413Z,8.17
2019-06-20T01:23:19.214Z,7.63
2019-06-20T01:25:45.973Z,6.80
2019-06-20T01:28:12.519Z,8.10
2019-06-20T01:30:41.380Z,7.00
2019-06-20T01:33:08.331Z,7.00
2019-06-20T01:35:34.895Z,7.53
2019-06-20T01:38:01.556Z,6.90
2019-06-20T01:40:28.190Z,7.30
2019-06-20T01:42:54.956Z,6.37
2019-06-20T01:45:21.494Z,7.10
2019-06-20T01:47:48.171Z,7.27
2019-06-20T01:50:14.998Z,6.40
2019-06-20T01:52:41.543Z,7.17
2019-06-20T01:55:09.121Z,6.70
2019-06-20T01:57:36.466Z,6.57
2019-06-20T02:00:07.977Z,7.90
2019-06-20T02:02:36.289Z,7.07
2019-06-20T02:05:06.676Z,7.80
2019-06-20T02:07:33.330Z,6.97
2019-06-20T02:09:59.897Z,6.53
2019-06-20T02:12:26.537Z,7.10
2019-06-20T02:14:53.306Z,6.47
2019-06-20T02:17:19.874Z,6.53
2019-06-20T02:19:46.444Z,6.60
2019-06-20T02:22:12.965Z,7.20
2019-06-20T02:24:39.663Z,6.57
2019-06-20T02:27:06.292Z,6.50
2019-06-20T02:29:33.083Z,7.60
2019-06-20T02:32:00.703Z,6.93
2019-06-20T02:34:27.474Z,7.60
2019-06-20T02:36:54.125Z,6.77
2019-06-20T02:39:20.788Z,7.67
2019-06-20T02:41:47.320Z,7.50
2019-06-20T02:44:29.205Z,7.23
2019-06-20T02:46:42.580Z,8.00
2019-06-20T02:49:09.338Z,7.47
2019-06-20T02:51:37.971Z,7.20
2019-06-20T02:54:04.834Z,7.73
2019-06-20T02:56:31.454Z,7.60
2019-06-20T02:58:58.050Z,8.17
2019-06-20T03:01:25.109Z,7.70
2019-06-20T03:03:51.652Z,7.53
2019-06-20T03:06:18.512Z,8.17
2019-06-20T03:08:45.181Z,7.80
2019-06-20T03:11:11.969Z,7.60
2019-06-20T03:13:38.628Z,7.93
2019-06-20T03:16:05.370Z,7.87
2019-06-20T03:18:32.042Z,8.33
2019-06-20T03:20:59.374Z,8.10
2019-06-20T03:23:26.150Z,7.80
2019-06-20T03:25:52.945Z,8.57
2019-06-20T03:28:19.539Z,8.23
2019-06-20T03:30:46.182Z,7.20
2019-06-20T03:33:12.989Z,7.70
2019-06-20T03:35:39.997Z,7.70
2019-06-20T03:38:08.295Z,7.10
2019-06-20T03:40:35.229Z,7.17
2019-06-20T03:43:02.095Z,7.80
2019-06-20T03:45:28.912Z,7.00
2019-06-20T03:47:55.614Z,6.90
2019-06-20T03:50:22.272Z,7.20
2019-06-20T03:52:50.741Z,7.33
2019-06-20T03:55:17.369Z,7.60
2019-06-20T03:57:44.038Z,7.10
2019-06-20T04:00:10.986Z,7.40
2019-06-20T04:02:37.634Z,6.90
2019-06-20T04:05:04.882Z,7.90
2019-06-20T04:07:31.409Z,8.50
2019-06-20T04:09:58.207Z,8.10
2019-06-20T04:12:24.735Z,7.77
2019-06-20T04:14:52.529Z,7.77
2019-06-20T04:17:19.036Z,8.10
2019-06-20T04:19:45.615Z,8.00
2019-06-20T04:22:12.149Z,8.53
2019-06-20T04:24:38.724Z,8.77
2019-06-20T04:27:05.558Z,8.13
2019-06-20T04:29:35.969Z,9.57
2019-06-20T04:32:02.277Z,8.87
2019-06-20T04:34:28.959Z,8.80
2019-06-20T04:36:55.687Z,9.73
2019-06-20T04:39:22.460Z,10.20
2019-06-20T04:41:50.794Z,10.60
2019-06-20T04:44:17.382Z,9.77
2019-06-20T04:46:46.119Z,10.50
2019-06-20T04:49:12.664Z,9.40
2019-06-20T04:51:41.330Z,9.10
2019-06-20T04:54:07.968Z,8.60
2019-06-20T04:56:34.994Z,8.73
2019-06-20T04:59:02.514Z,8.93
2019-06-20T05:01:29.080Z,10.30
2019-06-20T05:03:55.770Z,9.40
2019-06-20T05:06:22.397Z,7.40
2019-06-20T05:08:49.060Z,7.80
2019-06-20T05:11:15.845Z,7.50
2019-06-20T05:13:42.503Z,7.60
2019-06-20T05:16:09.027Z,6.13
2019-06-20T05:18:35.758Z,6.43
2019-06-20T05:21:02.433Z,6.63
2019-06-20T05:23:29.055Z,5.70
2019-06-20T05:25:55.722Z,6.20
2019-06-20T05:28:22.275Z,5.43
2019-06-20T05:30:49.851Z,6.07
2019-06-20T05:33:16.566Z,5.97
2019-06-20T05:35:43.231Z,5.47
2019-06-20T05:38:09.861Z,6.27
2019-06-20T05:40:37.317Z,6.20
2019-06-20T05:43:04.059Z,6.17
2019-06-20T05:45:30.732Z,6.07
2019-06-20T05:47:57.271Z,6.33
2019-06-20T05:50:23.947Z,6.27
2019-06-20T05:52:50.499Z,5.97
2019-06-20T05:55:17.047Z,7.20
2019-06-20T05:57:44.098Z,7.40
2019-06-20T06:00:11.595Z,7.27
2019-06-20T06:02:40.229Z,7.30
2019-06-20T06:05:07.408Z,9.67
2019-06-20T06:07:34.053Z,8.60
2019-06-20T06:10:04.368Z,9.60
2019-06-20T06:12:30.520Z,9.07
2019-06-20T06:15:00.641Z,8.47
2019-06-20T06:17:25.652Z,9.83
2019-06-20T06:19:53.915Z,9.50
2019-06-20T06:22:20.544Z,11.43
2019-06-20T06:24:47.121Z,10.67
2019-06-20T06:27:13.751Z,11.97
2019-06-20T06:29:40.364Z,10.93
2019-06-20T06:32:07.070Z,10.47
2019-06-20T06:34:33.611Z,9.40
2019-06-20T06:37:00.182Z,10.20
2019-06-20T06:39:26.722Z,9.60
2019-06-20T06:41:53.690Z,12.70
2019-06-20T06:44:20.218Z,11.67
2019-06-20T06:46:54.253Z,11.40
2019-06-20T06:49:15.109Z,12.37
2019-06-20T06:51:43.369Z,11.67
2019-06-20T06:54:10.103Z,12.17
2019-06-20T06:56:36.670Z,10.70
2019-06-20T06:59:03.538Z,9.40
2019-06-20T07:01:30.281Z,9.70
2019-06-20T07:03:56.826Z,10.50
2019-06-20T07:06:23.404Z,10.33
2019-06-20T07:08:50.070Z,10.00
2019-06-20T07:11:16.676Z,11.17
2019-06-20T07:13:43.310Z,9.37
2019-06-20T07:16:10.003Z,11.53
2019-06-20T07:18:36.539Z,10.30
2019-06-20T07:21:03.303Z,9.73
2019-06-20T07:23:29.942Z,10.80
2019-06-20T07:25:56.573Z,11.43
2019-06-20T07:28:24.037Z,11.13
2019-06-20T07:30:50.558Z,10.10
2019-06-20T07:33:17.219Z,8.87
2019-06-20T07:35:44.264Z,9.30
2019-06-20T07:38:11.938Z,9.83
2019-06-20T07:40:38.581Z,7.97
2019-06-20T07:43:05.445Z,7.43
2019-06-20T07:45:32.111Z,6.73
2019-06-20T07:47:58.704Z,5.90
2019-06-20T07:50:26.198Z,5.73
2019-06-20T07:53:02.065Z,4.80
2019-06-20T07:55:21.514Z,5.50
2019-06-20T07:57:48.577Z,3.50
2019-06-20T08:00:17.237Z,4.30
2019-06-20T08:02:43.930Z,4.93
2019-06-20T08:05:11.264Z,4.03
2019-06-20T08:07:37.935Z,4.63
2019-06-20T08:10:13.058Z,5.00
2019-06-20T08:12:39.937Z,5.07
2019-06-20T08:15:15.062Z,5.00
2019-06-20T08:17:36.111Z,4.90
2019-06-20T08:20:05.374Z,4.53
2019-06-20T08:22:32.145Z,5.10
2019-06-20T08:24:59.080Z,6.23
2019-06-20T08:27:44.722Z,5.30
2019-06-20T08:30:11.654Z,4.97
2019-06-20T08:32:38.296Z,6.00
2019-06-20T08:35:06.442Z,6.40
2019-06-20T08:37:33.333Z,5.70
2019-06-20T08:40:00.105Z,6.73
2019-06-20T08:42:26.749Z,7.00
2019-06-20T08:44:53.504Z,7.00
2019-06-20T08:47:20.540Z,7.17
2019-06-20T08:49:47.203Z,6.10
2019-06-20T08:52:13.994Z,6.23
2019-06-20T08:54:40.902Z,5.63
2019-06-20T08:57:07.588Z,5.97
2019-06-20T08:59:34.127Z,5.90
2019-06-20T09:04:29.249Z,6.30
2019-06-20T09:06:58.597Z,5.80
2019-06-20T09:09:26.830Z,6.10
2019-06-20T09:11:53.908Z,6.23
2019-06-20T09:14:21.778Z,5.40
2019-06-20T09:16:48.411Z,7.30
2019-06-20T09:19:14.989Z,7.37
2019-06-20T09:21:41.527Z,7.33
2019-06-20T09:24:08.179Z,6.73
2019-06-20T09:26:34.726Z,6.83
2019-06-20T09:29:01.283Z,7.37
2019-06-20T09:31:27.874Z,7.20
2019-06-20T09:33:55.701Z,7.50
2019-06-20T09:36:22.353Z,7.60
2019-06-20T09:38:49.122Z,8.73
2019-06-20T09:41:15.652Z,8.00
2019-06-20T09:43:42.302Z,9.73
2019-06-20T09:46:08.876Z,10.23
2019-06-20T09:48:35.424Z,10.60
2019-06-20T09:51:02.111Z,11.90
2019-06-20T09:53:28.654Z,13.37
2019-06-20T09:55:55.697Z,12.60
2019-06-20T09:58:22.269Z,14.30
2019-06-20T10:00:50.854Z,14.50
2019-06-20T10:03:17.569Z,13.30
2019-06-20T10:05:44.131Z,15.60
2019-06-20T10:08:10.661Z,15.77
2019-06-20T10:10:37.619Z,16.93
2019-06-20T10:13:04.151Z,18.23
2019-06-20T10:15:32.414Z,20.97
2019-06-20T10:17:59.251Z,21.90
2019-06-20T10:20:27.424Z,20.13
2019-06-20T10:22:53.838Z,21.47
2019-06-20T10:25:21.820Z,22.63
2019-06-20T10:27:49.753Z,24.47
2019-06-20T10:30:19.710Z,25.97
2019-06-20T10:32:46.786Z,25.00
2019-06-20T10:35:14.166Z,24.40
2019-06-20T10:37:42.353Z,26.07
2019-06-20T10:40:10.249Z,25.73
2019-06-20T10:42:36.885Z,27.27
2019-06-20T10:45:06.009Z,26.67
2019-06-20T10:47:36.073Z,25.20
2019-06-20T10:50:01.031Z,25.07
2019-06-20T10:52:27.799Z,24.80
2019-06-20T10:54:54.350Z,25.53
2019-06-20T10:57:20.889Z,24.67
2019-06-20T10:59:48.435Z,24.37
2019-06-20T11:02:15.517Z,23.20
2019-06-20T11:04:42.799Z,23.80
2019-06-20T11:07:10.595Z,23.33
2019-06-20T11:09:37.098Z,24.23
2019-06-20T11:12:03.900Z,23.47
2019-06-20T11:14:30.452Z,23.03
2019-06-20T11:16:57.302Z,25.93
2019-06-20T11:19:23.929Z,20.57
2019-06-20T11:21:50.602Z,22.10
2019-06-20T11:24:17.157Z,21.90
2019-06-20T11:26:43.898Z,22.30
2019-06-20T11:29:10.585Z,22.27
2019-06-20T11:31:41.746Z,22.73
2019-06-20T11:34:08.150Z,21.53
2019-06-20T11:36:36.986Z,19.93
2019-06-20T11:39:06.004Z,23.10
2019-06-20T11:41:32.712Z,19.30
2019-06-20T11:43:59.598Z,22.60
2019-06-20T11:46:27.809Z,21.40
2019-06-20T11:48:54.659Z,20.43
2019-06-20T11:51:21.283Z,21.27
2019-06-20T11:53:47.846Z,19.93
2019-06-20T11:56:14.384Z,18.53
2019-06-20T11:58:40.942Z,20.70
2019-06-20T12:01:07.787Z,19.30
2019-06-20T12:03:34.758Z,18.23
2019-06-20T12:06:01.374Z,18.90
2019-06-20T12:08:28.072Z,20.57
2019-06-20T12:10:54.876Z,20.00
2019-06-20T12:13:22.428Z,17.50
2019-06-20T12:15:49.255Z,17.77
2019-06-20T12:18:16.021Z,18.33
2019-06-20T12:20:42.904Z,19.33
2019-06-20T12:23:09.546Z,20.43
2019-06-20T12:25:36.363Z,17.67
2019-06-20T12:28:03.230Z,18.53
2019-06-20T12:30:31.769Z,17.90
2019-06-20T12:32:58.353Z,18.97
2019-06-20T12:35:24.878Z,18.90
2019-06-20T12:37:52.153Z,17.60
2019-06-20T12:40:19.542Z,16.07
2019-06-20T12:42:46.793Z,17.93
2019-06-20T12:45:15.729Z,18.10
2019-06-20T12:47:43.806Z,18.23
2019-06-20T12:50:11.020Z,16.87
2019-06-20T12:52:38.906Z,18.43
2019-06-20T12:55:07.860Z,17.30
2019-06-20T12:57:34.410Z,17.40
2019-06-20T13:00:00.977Z,16.40
2019-06-20T13:02:27.985Z,18.27
2019-06-20T13:04:54.595Z,17.30
2019-06-20T13:07:21.237Z,16.53
2019-06-20T13:09:48.335Z,16.77
2019-06-20T13:12:16.769Z,18.73
2019-06-20T13:14:43.437Z,16.20
2019-06-20T13:17:10.005Z,16.33
2019-06-20T13:19:37.755Z,17.70
2019-06-20T13:22:04.908Z,17.07
2019-06-20T13:24:31.669Z,16.67
2019-06-20T13:26:58.227Z,17.27
2019-06-20T13:29:24.891Z,17.23
2019-06-20T13:32:03.072Z,16.80
2019-06-20T13:34:20.033Z,19.73
2019-06-20T13:36:47.043Z,21.33
2019-06-20T13:39:13.641Z,22.07
2019-06-20T13:41:41.065Z,23.40
2019-06-20T13:44:07.886Z,22.57
2019-06-20T13:46:34.623Z,19.93
2019-06-20T13:49:01.182Z,17.53
2019-06-20T13:51:27.738Z,16.90
2019-06-20T13:53:54.304Z,16.17
2019-06-20T13:56:21.046Z,15.23
2019-06-20T13:58:48.830Z,14.33
2019-06-20T14:01:15.529Z,14.50
2019-06-20T14:03:43.723Z,15.33
2019-06-20T14:06:10.566Z,13.37
2019-06-20T14:08:37.220Z,18.30
2019-06-20T14:11:03.854Z,17.37
2019-06-20T14:13:30.407Z,18.27
2019-06-20T14:15:56.867Z,17.20
2019-06-20T14:18:23.515Z,17.67
2019-06-20T14:20:50.818Z,17.60
2019-06-20T14:23:17.417Z,14.70
2019-06-20T14:25:44.083Z,14.63
2019-06-20T14:28:10.933Z,14.43
2019-06-20T14:30:37.680Z,13.00
2019-06-20T14:33:05.427Z,13.33
2019-06-20T14:35:32.093Z,11.10
2019-06-20T14:37:58.745Z,11.30
2019-06-20T14:40:25.438Z,9.53
2019-06-20T14:42:52.392Z,11.67
2019-06-20T14:45:19.743Z,11.37
2019-06-20T14:47:46.785Z,11.80
2019-06-20T14:50:14.487Z,10.57
2019-06-20T14:52:42.691Z,10.57
2019-06-20T14:55:10.488Z,10.50
2019-06-20T14:57:37.023Z,12.03
2019-06-20T15:00:05.803Z,11.37
2019-06-20T15:02:38.528Z,10.00
2019-06-20T15:05:00.898Z,8.37
2019-06-20T15:07:27.516Z,9.30
2019-06-20T15:09:55.285Z,8.60
2019-06-20T15:12:22.123Z,9.27
2019-06-20T15:14:49.795Z,7.27
2019-06-20T15:17:16.965Z,7.10
2019-06-20T15:19:44.887Z,7.17
2019-06-20T15:22:11.995Z,5.90
2019-06-20T15:24:38.651Z,6.43
2019-06-20T15:27:05.218Z,5.27
2019-06-20T15:29:31.864Z,5.17
2019-06-20T15:31:58.525Z,4.50
2019-06-20T15:34:25.337Z,4.70
2019-06-20T15:36:53.334Z,4.80
2019-06-20T15:39:20.107Z,5.90
2019-06-20T15:41:48.130Z,5.60
2019-06-20T15:44:15.330Z,5.17
2019-06-20T15:46:42.019Z,4.60
2019-06-20T15:49:16.197Z,6.87
2019-06-20T15:51:37.134Z,7.53
2019-06-20T15:54:03.782Z,6.60
2019-06-20T15:56:30.852Z,6.83
2019-06-20T15:58:57.580Z,7.03
2019-06-20T16:01:24.234Z,6.63
2019-06-20T16:03:50.989Z,6.90
2019-06-20T16:06:18.569Z,7.80
2019-06-20T16:08:45.202Z,7.50
2019-06-20T16:11:11.793Z,6.87
2019-06-20T16:13:38.454Z,6.60
2019-06-20T16:16:05.138Z,6.00
2019-06-20T16:18:31.825Z,6.47
2019-06-20T16:20:58.450Z,6.50
2019-06-20T16:23:25.016Z,6.53
2019-06-20T16:25:51.566Z,6.93
2019-06-20T16:28:18.214Z,6.80
2019-06-20T16:30:44.755Z,6.07
2019-06-20T16:33:24.188Z,7.67
2019-06-20T16:35:39.659Z,6.10
2019-06-20T16:38:06.270Z,7.30
2019-06-20T16:40:42.633Z,7.60
2019-06-20T16:43:09.979Z,6.77
2019-06-20T16:45:36.504Z,6.60
2019-06-20T16:48:03.400Z,7.07
2019-06-20T16:50:30.121Z,6.73
2019-06-20T16:52:56.778Z,7.30
2019-06-20T16:55:23.248Z,7.47
2019-06-20T16:57:49.897Z,6.70
2019-06-20T17:00:16.865Z,6.40
2019-06-20T17:02:43.507Z,6.43
2019-06-20T17:05:11.747Z,6.37
2019-06-20T17:07:38.627Z,8.23
2019-06-20T17:10:07.155Z,7.53
2019-06-20T17:12:33.957Z,5.67
2019-06-20T17:15:00.605Z,6.23
2019-06-20T17:17:27.143Z,6.50
2019-06-20T17:19:53.885Z,6.13
2019-06-20T17:22:20.446Z,6.70
2019-06-20T17:24:47.047Z,6.70
2019-06-20T17:27:13.593Z,6.73
2019-06-20T17:29:40.150Z,6.00
2019-06-20T17:32:06.694Z,6.60
2019-06-20T17:34:33.253Z,6.40
2019-06-20T17:36:59.806Z,7.73
2019-06-20T17:39:26.476Z,7.90
2019-06-20T17:41:55.464Z,8.07
2019-06-20T17:44:21.620Z,7.90
2019-06-20T17:46:48.362Z,8.50
2019-06-20T17:49:15.246Z,8.30
2019-06-20T17:51:41.986Z,8.33
2019-06-20T17:54:08.664Z,8.57
2019-06-20T17:56:35.393Z,7.90
2019-06-20T17:59:02.006Z,8.70
2019-06-20T18:01:30.345Z,8.40
2019-06-20T18:04:10.130Z,9.43
2019-06-20T18:06:25.473Z,9.37
2019-06-20T18:08:52.229Z,8.70
2019-06-20T18:11:19.608Z,9.23
2019-06-20T18:13:46.758Z,9.10
2019-06-20T18:16:24.483Z,8.60
2019-06-20T18:18:41.823Z,8.00
2019-06-20T18:21:08.490Z,8.17
2019-06-20T18:23:35.225Z,8.00
2019-06-20T18:26:01.809Z,10.20
2019-06-20T18:28:28.239Z,8.77
2019-06-20T18:30:54.808Z,8.60
2019-06-20T18:33:21.352Z,9.93
2019-06-20T18:35:47.943Z,8.93
2019-06-20T18:38:14.577Z,9.27
2019-06-20T18:40:41.146Z,10.40
2019-06-20T18:43:07.674Z,13.37
2019-06-20T18:45:34.258Z,9.57
2019-06-20T18:48:01.331Z,18.80
2019-06-20T18:50:27.911Z,11.57
2019-06-20T18:52:54.538Z,13.13
2019-06-20T18:55:21.208Z,12.90
2019-06-20T18:57:47.786Z,16.30
2019-06-20T19:00:15.179Z,10.80
2019-06-20T19:02:41.809Z,10.33
2019-06-20T19:05:10.074Z,11.07
2019-06-20T19:07:36.619Z,11.10
2019-06-20T19:10:07.576Z,10.80
2019-06-20T19:12:34.248Z,10.33
2019-06-20T19:15:00.812Z,10.83
2019-06-20T19:17:27.446Z,10.97
2019-06-20T19:19:54.059Z,10.93
2019-06-20T19:22:20.710Z,11.13
2019-06-20T19:24:48.365Z,7.70
2019-06-20T19:27:15.092Z,7.60
2019-06-20T19:29:41.629Z,8.10
2019-06-20T19:32:08.486Z,7.10
2019-06-20T19:34:35.001Z,7.43
2019-06-20T19:37:01.678Z,7.50
2019-06-20T19:39:28.214Z,8.93
2019-06-20T19:41:54.781Z,9.73
2019-06-20T19:44:21.430Z,9.00
2019-06-20T19:46:48.101Z,8.70
2019-06-20T19:49:14.727Z,7.97
2019-06-20T19:51:41.298Z,6.90
2019-06-20T19:54:08.146Z,6.63
2019-06-20T19:56:34.730Z,7.77
2019-06-20T19:59:01.599Z,7.40
2019-06-20T20:01:28.992Z,7.77
2019-06-20T20:03:55.661Z,6.93
2019-06-20T20:06:22.331Z,7.63
2019-06-20T20:08:48.868Z,6.90
2019-06-20T20:11:15.710Z,7.40
2019-06-20T20:13:43.255Z,6.90
2019-06-20T20:16:09.921Z,6.43
2019-06-20T20:18:36.561Z,7.47
2019-06-20T20:21:03.294Z,7.33
2019-06-20T20:23:30.062Z,7.13
2019-06-20T20:25:56.655Z,7.30
2019-06-20T20:28:23.181Z,7.70
2019-06-20T20:30:49.763Z,7.57
2019-06-20T20:33:16.477Z,8.07
2019-06-20T20:35:43.227Z,8.10
2019-06-20T20:38:10.878Z,7.03
2019-06-20T20:40:37.535Z,8.70
2019-06-20T20:43:04.630Z,7.70
2019-06-20T20:45:31.396Z,7.50
2019-06-20T20:47:58.254Z,7.77
2019-06-20T20:50:24.867Z,8.20
2019-06-20T20:52:51.477Z,8.30
2019-06-20T20:55:18.070Z,8.07
2019-06-20T20:57:44.763Z,7.60
2019-06-20T21:00:23.901Z,8.90
2019-06-20T21:02:51.623Z,8.30
2019-06-20T21:05:18.632Z,8.00
2019-06-20T21:07:45.318Z,8.50
2019-06-20T21:10:12.183Z,7.53
2019-06-20T21:12:38.866Z,8.07
2019-06-20T21:15:06.182Z,8.07
2019-06-20T21:17:32.918Z,7.37
2019-06-20T21:19:59.559Z,7.63
2019-06-20T21:22:26.234Z,7.73
2019-06-20T21:24:52.891Z,7.73
2019-06-20T21:27:19.638Z,7.77
2019-06-20T21:29:46.413Z,7.97
2019-06-20T21:32:13.416Z,8.57
2019-06-20T21:34:40.082Z,7.90
2019-06-20T21:37:06.779Z,8.30
2019-06-20T21:39:38.664Z,6.73
2019-06-20T21:42:03.961Z,8.27
2019-06-20T21:44:30.632Z,7.80
2019-06-20T21:46:57.304Z,8.10
2019-06-20T21:49:23.893Z,8.47
2019-06-20T21:51:50.454Z,8.60
2019-06-20T21:54:17.145Z,8.40
2019-06-20T21:56:43.891Z,8.23
2019-06-20T21:59:11.473Z,8.20
2019-06-20T22:01:39.924Z,8.77
2019-06-20T22:04:06.816Z,9.60
2019-06-20T22:06:33.577Z,8.73
2019-06-20T22:09:00.146Z,8.43
2019-06-20T22:11:26.708Z,8.37
2019-06-20T22:13:53.364Z,8.00
2019-06-20T22:16:19.905Z,8.27
2019-06-20T22:18:46.690Z,7.87
2019-06-20T22:21:13.266Z,8.30
2019-06-20T22:23:40.034Z,8.80
2019-06-20T22:26:06.486Z,8.70
2019-06-20T22:28:33.269Z,10.10
2019-06-20T22:31:01.000Z,9.30
2019-06-20T22:33:29.260Z,10.30
2019-06-20T22:35:57.551Z,9.73
2019-06-20T22:38:24.289Z,8.20
2019-06-20T22:40:50.946Z,9.63
2019-06-20T22:43:17.770Z,9.87
2019-06-20T22:45:44.454Z,10.13
2019-06-20T22:48:11.010Z,12.00
2019-06-20T22:50:37.700Z,12.10
2019-06-20T22:53:04.345Z,11.83
2019-06-20T22:55:31.020Z,13.00
2019-06-20T22:57:57.866Z,13.50
2019-06-20T23:00:24.846Z,14.03
2019-06-20T23:02:52.582Z,14.77
2019-06-20T23:05:19.760Z,14.47
2019-06-20T23:07:46.697Z,16.27
2019-06-20T23:10:13.892Z,16.07
2019-06-20T23:12:40.657Z,15.67
2019-06-20T23:15:08.142Z,15.30
2019-06-20T23:17:35.072Z,17.10
2019-06-20T23:20:04.545Z,16.10
2019-06-20T23:22:31.221Z,17.60
2019-06-20T23:24:57.782Z,18.90
2019-06-20T23:27:24.306Z,21.77
2019-06-20T23:29:50.966Z,24.23
2019-06-20T23:32:17.638Z,22.13
2019-06-20T23:34:44.365Z,23.47
2019-06-20T23:37:13.016Z,20.90
2019-06-20T23:39:39.557Z,22.43
2019-06-20T23:42:06.402Z,21.40
2019-06-20T23:44:33.027Z,19.50
2019-06-20T23:46:59.778Z,20.70
2019-06-20T23:49:26.430Z,20.87
2019-06-20T23:51:55.083Z,21.37
2019-06-20T23:54:22.536Z,21.30
2019-06-20T23:56:49.110Z,21.33
2019-06-20T23:59:15.892Z,22.53
